createdAt,value
2022-10-02T00:02:03.768Z,11.20
2022-10-02T00:04:55.814Z,10.30
2022-10-02T00:07:35.625Z,5.45
2022-10-02T00:10:11.276Z,9.20
2022-10-02T00:12:42.876Z,8.02
2022-10-02T00:15:16.960Z,13.25
2022-10-02T00:17:48.085Z,10.27
2022-10-02T00:20:20.127Z,10.90
2022-10-02T00:22:50.590Z,12.15
2022-10-02T00:25:42.419Z,8.75
2022-10-02T00:28:29.188Z,11.00
2022-10-02T00:34:02.643Z,11.95
2022-10-02T00:36:48.811Z,11.18
2022-10-02T00:40:00.093Z,9.77
2022-10-02T00:42:33.422Z,13.25
2022-10-02T00:45:31.863Z,12.05
2022-10-02T00:48:32.780Z,12.57
2022-10-02T00:51:51.031Z,11.43
2022-10-02T00:54:18.184Z,17.20
2022-10-02T00:57:02.912Z,10.80
2022-10-02T01:00:00.635Z,8.55
2022-10-02T01:02:36.781Z,12.60
2022-10-02T01:05:07.634Z,13.93
2022-10-02T01:07:36.988Z,18.85
2022-10-02T01:10:04.673Z,10.38
2022-10-02T01:12:31.969Z,14.98
2022-10-02T01:14:59.207Z,10.15
2022-10-02T01:17:32.047Z,12.25
2022-10-02T01:20:06.060Z,7.95
2022-10-02T01:22:45.698Z,11.05
2022-10-02T01:25:13.306Z,11.68
2022-10-02T01:27:40.597Z,9.68
2022-10-02T01:30:14.361Z,11.82
2022-10-02T01:32:46.057Z,14.00
2022-10-02T01:35:17.690Z,10.35
2022-10-02T01:37:45.107Z,9.23
2022-10-02T01:40:25.328Z,11.48
2022-10-02T01:42:53.540Z,11.05
2022-10-02T01:45:29.847Z,15.75
2022-10-02T01:48:14.343Z,12.93
2022-10-02T01:50:46.096Z,9.43
2022-10-02T01:53:42.727Z,10.98
2022-10-02T01:59:00.965Z,14.10
2022-10-02T02:01:54.097Z,13.23
2022-10-02T02:04:28.453Z,16.83
2022-10-02T02:07:16.232Z,14.43
2022-10-02T02:09:53.027Z,12.70
2022-10-02T02:12:43.784Z,11.32
2022-10-02T02:15:22.920Z,12.88
2022-10-02T02:17:53.945Z,9.82
2022-10-02T02:20:35.269Z,18.40
2022-10-02T02:23:27.011Z,19.15
2022-10-02T02:26:01.620Z,15.52
2022-10-02T02:28:30.925Z,13.20
2022-10-02T02:30:59.060Z,14.18
2022-10-02T02:33:42.163Z,8.35
2022-10-02T02:36:13.459Z,14.80
2022-10-02T02:38:44.821Z,8.07
2022-10-02T02:41:24.911Z,12.02
2022-10-02T02:44:03.274Z,10.60
2022-10-02T02:47:12.797Z,15.88
2022-10-02T02:49:57.836Z,12.60
2022-10-02T02:52:28.793Z,14.70
2022-10-02T02:55:05.550Z,10.70
2022-10-02T02:57:44.714Z,10.45
2022-10-02T03:00:20.151Z,12.90
2022-10-02T03:02:50.443Z,16.33
2022-10-02T03:05:19.084Z,8.95
2022-10-02T03:07:54.443Z,14.63
2022-10-02T03:10:30.584Z,15.63
2022-10-02T03:13:15.806Z,12.57
2022-10-02T03:15:51.856Z,13.73
2022-10-02T03:18:31.459Z,12.82
2022-10-02T03:21:08.221Z,8.07
2022-10-02T03:23:58.207Z,12.32
2022-10-02T03:27:11.648Z,6.30
2022-10-02T03:30:00.187Z,13.38
2022-10-02T03:32:27.927Z,14.27
2022-10-02T03:34:57.298Z,11.68
2022-10-02T03:37:26.780Z,10.93
2022-10-02T03:39:58.545Z,14.48
2022-10-02T03:42:32.015Z,11.05
2022-10-02T03:44:59.245Z,14.55
2022-10-02T03:47:26.654Z,10.65
2022-10-02T03:49:53.935Z,12.20
2022-10-02T03:52:22.530Z,12.48
2022-10-02T03:55:16.074Z,16.60
2022-10-02T03:57:48.158Z,11.65
2022-10-02T04:00:20.018Z,11.55
2022-10-02T04:02:47.553Z,13.07
2022-10-02T04:05:46.720Z,12.27
2022-10-02T04:08:29.182Z,12.93
2022-10-02T04:11:10.868Z,9.75
2022-10-02T04:14:10.239Z,10.27
2022-10-02T04:16:57.711Z,13.05
2022-10-02T04:19:44.599Z,14.80
2022-10-02T04:22:35.502Z,9.40
2022-10-02T04:25:18.691Z,13.45
2022-10-02T04:30:42.771Z,12.60
2022-10-02T04:33:21.826Z,12.50
2022-10-02T04:36:24.347Z,11.32
2022-10-02T04:39:00.749Z,12.25
2022-10-02T04:42:03.877Z,15.50
2022-10-02T04:44:57.237Z,9.05
2022-10-02T04:47:56.518Z,8.98
2022-10-02T04:50:35.626Z,13.95
2022-10-02T04:53:29.140Z,9.75
2022-10-02T04:56:08.480Z,10.70
2022-10-02T04:59:00.375Z,14.40
2022-10-02T05:02:12.057Z,13.43
2022-10-02T05:05:06.554Z,9.82
2022-10-02T05:07:37.078Z,10.80
2022-10-02T05:10:36.375Z,8.70
2022-10-02T05:13:28.371Z,9.45
2022-10-02T05:16:20.454Z,10.55
2022-10-02T05:19:25.925Z,15.82
2022-10-02T05:22:20.670Z,8.25
2022-10-02T05:24:50.914Z,12.65
2022-10-02T05:28:13.230Z,12.65
2022-10-02T05:31:21.897Z,11.75
2022-10-02T05:33:55.267Z,7.80
2022-10-02T05:36:45.036Z,11.30
2022-10-02T05:39:31.275Z,6.20
2022-10-02T05:42:09.133Z,8.35
2022-10-02T05:44:45.621Z,12.02
2022-10-02T05:47:39.462Z,10.45
2022-10-02T05:50:27.765Z,10.63
2022-10-02T05:53:02.162Z,6.32
2022-10-02T05:55:49.453Z,13.25
2022-10-02T05:58:25.622Z,10.27
2022-10-02T06:01:17.449Z,6.32
2022-10-02T06:03:53.576Z,9.80
2022-10-02T06:06:26.761Z,9.77
2022-10-02T06:09:10.638Z,10.02
2022-10-02T06:11:49.004Z,11.68
2022-10-02T06:14:27.871Z,14.23
2022-10-02T06:17:07.787Z,9.00
2022-10-02T06:19:52.246Z,11.60
2022-10-02T06:22:21.947Z,15.02
2022-10-02T06:25:05.175Z,12.45
2022-10-02T06:27:46.874Z,10.65
2022-10-02T06:30:18.222Z,11.50
2022-10-02T06:33:03.668Z,10.93
2022-10-02T06:36:10.472Z,15.60
2022-10-02T06:38:40.398Z,9.40
2022-10-02T06:41:35.291Z,11.60
2022-10-02T06:44:08.460Z,15.82
2022-10-02T06:47:21.341Z,18.92
2022-10-02T06:49:48.505Z,8.45
2022-10-02T06:52:38.273Z,11.48
2022-10-02T06:55:21.050Z,13.05
2022-10-02T06:58:13.984Z,12.95
2022-10-02T07:00:50.802Z,12.52
2022-10-02T07:03:33.293Z,17.17
2022-10-02T07:06:09.558Z,15.40
2022-10-02T07:08:49.225Z,9.48
2022-10-02T07:11:32.804Z,11.85
2022-10-02T07:14:09.064Z,15.00
2022-10-02T07:17:07.429Z,12.23
2022-10-02T07:19:43.794Z,9.30
2022-10-02T07:22:43.410Z,12.88
2022-10-02T07:25:33.078Z,17.85
2022-10-02T07:28:03.588Z,11.50
2022-10-02T07:30:38.232Z,15.93
2022-10-02T07:33:19.462Z,10.15
2022-10-02T07:36:08.481Z,17.00
2022-10-02T07:38:58.678Z,14.48
2022-10-02T07:41:35.952Z,9.82
2022-10-02T07:44:15.379Z,10.90
2022-10-02T07:46:56.384Z,14.45
2022-10-02T07:49:56.512Z,16.15
2022-10-02T07:53:02.070Z,17.63
2022-10-02T07:55:29.331Z,16.80
2022-10-02T07:58:05.268Z,11.98
2022-10-02T08:00:37.193Z,19.98
2022-10-02T08:03:13.294Z,14.20
2022-10-02T08:05:56.632Z,14.43
2022-10-02T08:08:47.020Z,13.88
2022-10-02T08:11:19.627Z,25.08
2022-10-02T08:14:12.570Z,18.02
2022-10-02T08:16:48.756Z,18.50
2022-10-02T08:19:30.926Z,16.73
2022-10-02T08:22:08.359Z,14.90
2022-10-02T08:24:41.778Z,16.25
2022-10-02T08:27:18.780Z,22.50
2022-10-02T08:29:58.401Z,14.77
2022-10-02T08:32:35.070Z,18.23
2022-10-02T08:35:13.281Z,15.60
2022-10-02T08:37:49.467Z,15.60
2022-10-02T08:40:29.655Z,21.25
2022-10-02T08:43:23.173Z,13.77
2022-10-02T08:46:11.333Z,13.45
2022-10-02T08:49:02.753Z,14.27
2022-10-02T08:52:03.152Z,15.95
2022-10-02T08:55:09.541Z,16.80
2022-10-02T08:57:57.348Z,18.38
2022-10-02T09:00:46.247Z,13.50
2022-10-02T09:03:47.934Z,15.63
2022-10-02T09:06:55.414Z,16.65
2022-10-02T09:09:28.730Z,17.95
2022-10-02T09:12:33.551Z,16.58
2022-10-02T09:15:21.087Z,15.80
2022-10-02T09:18:00.118Z,16.40
2022-10-02T09:21:11.314Z,14.23
2022-10-02T09:24:12.495Z,16.02
2022-10-02T09:27:05.495Z,13.68
2022-10-02T09:30:09.768Z,12.88
2022-10-02T09:33:16.218Z,22.20
2022-10-02T09:36:09.608Z,23.38
2022-10-02T09:38:59.130Z,22.67
2022-10-02T09:42:06.147Z,16.60
2022-10-02T09:45:08.870Z,17.08
2022-10-02T09:47:48.536Z,12.90
2022-10-02T09:50:37.576Z,12.20
2022-10-02T09:53:22.788Z,18.35
2022-10-02T09:55:59.366Z,14.43
2022-10-02T09:59:07.743Z,17.70
2022-10-02T10:01:50.634Z,14.82
2022-10-02T10:05:04.058Z,10.05
2022-10-02T10:07:49.964Z,13.45
2022-10-02T10:10:41.934Z,11.38
2022-10-02T10:13:21.631Z,12.00
2022-10-02T10:16:30.351Z,14.50
2022-10-02T10:19:15.116Z,17.85
2022-10-02T10:21:51.417Z,16.75
2022-10-02T10:24:25.321Z,20.33
2022-10-02T10:27:22.060Z,16.00
2022-10-02T10:30:09.907Z,11.13
2022-10-02T10:33:09.454Z,14.63
2022-10-02T10:36:04.745Z,13.60
2022-10-02T10:38:52.317Z,10.50
2022-10-02T10:41:57.591Z,12.63
2022-10-02T10:45:05.816Z,8.77
2022-10-02T10:51:32.903Z,11.20
2022-10-02T10:54:26.146Z,8.73
2022-10-02T11:00:10.251Z,8.07
2022-10-02T11:06:16.958Z,5.47
2022-10-02T11:11:53.402Z,7.78
2022-10-02T11:15:18.125Z,4.00
2022-10-02T11:18:26.893Z,9.45
2022-10-02T11:21:13.897Z,8.05
2022-10-02T11:24:01.937Z,6.07
2022-10-02T11:26:40.144Z,9.20
2022-10-02T11:29:34.784Z,7.75
2022-10-02T11:32:41.764Z,11.05
2022-10-02T11:35:50.931Z,4.88
2022-10-02T11:38:55.593Z,12.38
2022-10-02T11:41:55.301Z,7.95
2022-10-02T11:44:43.831Z,9.20
2022-10-02T11:47:42.877Z,6.90
2022-10-02T11:50:36.431Z,8.93
2022-10-02T11:53:37.101Z,11.88
2022-10-02T11:56:22.636Z,12.25
2022-10-02T11:59:03.820Z,6.10
2022-10-02T12:01:47.552Z,7.30
2022-10-02T12:04:40.249Z,7.90
2022-10-02T12:07:45.089Z,12.73
2022-10-02T12:10:57.574Z,10.73
2022-10-02T12:17:12.704Z,9.02
2022-10-02T12:20:46.308Z,8.85
2022-10-02T12:23:43.343Z,9.73
2022-10-02T12:26:54.879Z,8.68
2022-10-02T12:29:51.699Z,6.13
2022-10-02T12:32:40.816Z,7.85
2022-10-02T12:36:05.508Z,7.85
2022-10-02T12:38:52.225Z,8.48
2022-10-02T12:41:48.225Z,9.80
2022-10-02T12:44:39.541Z,8.40
2022-10-02T12:47:13.746Z,7.00
2022-10-02T12:50:11.188Z,5.95
2022-10-02T12:52:54.118Z,3.58
2022-10-02T12:56:05.570Z,6.75
2022-10-02T12:58:57.288Z,8.05
2022-10-02T13:01:58.263Z,9.18
2022-10-02T13:05:05.578Z,9.65
2022-10-02T13:07:57.016Z,6.63
2022-10-02T13:10:29.287Z,8.15
2022-10-02T13:13:06.861Z,6.28
2022-10-02T13:15:42.911Z,10.60
2022-10-02T13:18:17.851Z,8.45
2022-10-02T13:21:13.567Z,13.38
2022-10-02T13:23:41.967Z,7.50
2022-10-02T13:26:24.049Z,8.07
2022-10-02T13:29:14.880Z,5.00
2022-10-02T13:32:30.234Z,9.73
2022-10-02T13:35:25.170Z,6.13
2022-10-02T13:38:01.210Z,8.35
2022-10-02T13:40:58.600Z,9.38
2022-10-02T13:43:25.918Z,3.65
2022-10-02T13:46:17.850Z,6.75
2022-10-02T13:49:22.476Z,7.15
2022-10-02T13:52:08.698Z,5.13
2022-10-02T13:54:50.097Z,3.90
2022-10-02T13:57:43.269Z,6.05
2022-10-02T14:00:34.835Z,9.20
2022-10-02T14:03:18.084Z,4.90
2022-10-02T14:05:58.106Z,6.10
2022-10-02T14:08:50.860Z,6.05
2022-10-02T14:11:24.106Z,7.18
2022-10-02T14:14:26.352Z,8.43
2022-10-02T14:20:24.238Z,6.93
2022-10-02T14:23:16.122Z,8.98
2022-10-02T14:26:08.555Z,5.63
2022-10-02T14:28:38.665Z,5.68
2022-10-02T14:31:49.865Z,6.35
2022-10-02T14:34:20.004Z,5.40
2022-10-02T14:37:16.727Z,6.97
2022-10-02T14:39:58.703Z,6.93
2022-10-02T14:42:49.929Z,5.00
2022-10-02T14:45:58.983Z,6.60
2022-10-02T14:49:21.262Z,4.18
2022-10-02T14:55:43.434Z,7.53
2022-10-02T14:58:52.763Z,6.43
2022-10-02T15:09:27.860Z,4.03
2022-10-02T15:12:02.036Z,10.15
2022-10-02T15:15:34.261Z,5.70
2022-10-02T15:18:10.538Z,4.25
2022-10-02T15:21:00.401Z,5.18
2022-10-02T15:23:43.933Z,4.38
2022-10-02T15:26:56.734Z,6.47
2022-10-02T15:29:36.025Z,7.25
2022-10-02T15:32:59.508Z,7.05
2022-10-02T15:35:58.358Z,9.00
2022-10-02T15:38:40.741Z,9.25
2022-10-02T15:41:41.362Z,6.20
2022-10-02T15:44:55.459Z,9.75
2022-10-02T15:47:55.937Z,6.60
2022-10-02T15:50:40.704Z,6.40
2022-10-02T15:53:47.227Z,4.53
2022-10-02T15:56:29.576Z,12.15
2022-10-02T15:59:38.632Z,5.63
2022-10-02T16:02:13.357Z,7.20
2022-10-02T16:04:49.923Z,8.45
2022-10-02T16:07:49.402Z,4.03
2022-10-02T16:10:21.392Z,6.97
2022-10-02T16:13:25.100Z,9.52
2022-10-02T16:16:04.755Z,5.77
2022-10-02T16:18:45.746Z,10.63
2022-10-02T16:21:31.320Z,7.07
2022-10-02T16:24:14.452Z,7.53
2022-10-02T16:27:12.224Z,5.60
2022-10-02T16:29:56.400Z,8.23
2022-10-02T16:32:39.381Z,6.20
2022-10-02T16:35:24.183Z,11.32
2022-10-02T16:38:00.027Z,5.32
2022-10-02T16:40:56.857Z,7.63
2022-10-02T16:43:37.482Z,6.63
2022-10-02T16:46:17.978Z,13.77
2022-10-02T16:48:56.485Z,11.27
2022-10-02T16:51:58.421Z,4.95
2022-10-02T16:54:57.074Z,8.18
2022-10-02T16:57:56.458Z,6.03
2022-10-02T17:00:30.164Z,6.05
2022-10-02T17:03:14.514Z,8.75
2022-10-02T17:05:54.900Z,7.47
2022-10-02T17:08:30.641Z,8.57
2022-10-02T17:11:22.990Z,11.93
2022-10-02T17:14:17.381Z,8.82
2022-10-02T17:16:52.531Z,11.57
2022-10-02T17:19:25.603Z,9.00
2022-10-02T17:22:15.108Z,11.63
2022-10-02T17:25:01.623Z,10.82
2022-10-02T17:27:58.647Z,7.85
2022-10-02T17:30:31.652Z,8.13
2022-10-02T17:33:14.112Z,11.95
2022-10-02T17:35:59.361Z,12.93
2022-10-02T17:38:59.769Z,9.75
2022-10-02T17:41:38.454Z,10.82
2022-10-02T17:44:20.383Z,13.63
2022-10-02T17:47:13.412Z,10.00
2022-10-02T17:50:08.305Z,6.35
2022-10-02T17:53:06.464Z,7.07
2022-10-02T17:56:29.347Z,9.07
2022-10-02T17:59:09.467Z,6.57
2022-10-02T18:02:09.087Z,9.52
2022-10-02T18:05:01.559Z,10.73
2022-10-02T18:07:55.620Z,8.32
2022-10-02T18:10:52.427Z,8.88
2022-10-02T18:17:02.490Z,11.05
2022-10-02T18:19:45.928Z,9.93
2022-10-02T18:22:36.420Z,10.18
2022-10-02T18:25:51.355Z,7.25
2022-10-02T18:28:36.301Z,11.05
2022-10-02T18:31:54.626Z,11.63
2022-10-02T18:34:51.905Z,7.85
2022-10-02T18:37:34.011Z,7.03
2022-10-02T18:40:50.051Z,8.07
2022-10-02T18:43:41.216Z,9.50
2022-10-02T18:46:17.228Z,11.35
2022-10-02T18:49:07.322Z,16.50
2022-10-02T18:51:58.617Z,13.40
2022-10-02T18:54:49.236Z,14.05
2022-10-02T18:57:57.579Z,7.72
2022-10-02T19:01:11.662Z,14.48
2022-10-02T19:04:19.979Z,13.80
2022-10-02T19:07:20.211Z,11.30
2022-10-02T19:09:49.678Z,10.57
2022-10-02T19:12:22.798Z,12.27
2022-10-02T19:14:57.526Z,12.93
2022-10-02T19:17:30.663Z,8.10
2022-10-02T19:19:58.710Z,9.13
2022-10-02T19:22:36.473Z,10.77
2022-10-02T19:25:13.677Z,11.40
2022-10-02T19:27:46.795Z,12.23
2022-10-02T19:30:29.365Z,10.20
2022-10-02T19:33:02.081Z,11.15
2022-10-02T19:35:58.845Z,10.95
2022-10-02T19:38:35.792Z,13.57
2022-10-02T19:41:19.342Z,18.65
2022-10-02T19:44:26.940Z,11.65
2022-10-02T19:48:21.111Z,11.40
2022-10-02T19:51:37.082Z,15.13
2022-10-02T19:54:46.678Z,12.45
2022-10-02T19:57:45.672Z,14.70
2022-10-02T20:00:38.586Z,10.75
2022-10-02T20:03:36.882Z,18.63
2022-10-02T20:06:19.608Z,17.30
2022-10-02T20:09:18.110Z,13.90
2022-10-02T20:13:06.374Z,16.30
2022-10-02T20:16:21.684Z,8.93
2022-10-02T20:18:57.857Z,12.73
2022-10-02T20:21:48.513Z,16.17
2022-10-02T20:24:25.642Z,13.07
2022-10-02T20:27:22.855Z,8.73
2022-10-02T20:30:05.542Z,14.88
2022-10-02T20:32:50.660Z,14.70
2022-10-02T20:38:24.210Z,11.73
2022-10-02T20:41:00.204Z,17.13
2022-10-02T20:44:30.595Z,12.68
2022-10-02T20:47:37.415Z,16.52
2022-10-02T20:50:25.453Z,14.27
2022-10-02T20:53:10.529Z,13.35
2022-10-02T20:55:48.324Z,11.48
2022-10-02T20:58:34.311Z,12.55
2022-10-02T21:01:21.226Z,14.38
2022-10-02T21:04:18.496Z,13.75
2022-10-02T21:07:10.897Z,12.38
2022-10-02T21:09:58.390Z,11.27
2022-10-02T21:13:02.253Z,14.25
2022-10-02T21:16:18.424Z,18.52
2022-10-02T21:19:27.184Z,15.88
2022-10-02T21:22:26.369Z,13.95
2022-10-02T21:25:23.657Z,22.88
2022-10-02T21:28:18.462Z,19.42
2022-10-02T21:31:23.852Z,16.40
2022-10-02T21:33:59.887Z,19.20
2022-10-02T21:36:37.237Z,11.40
2022-10-02T21:39:32.924Z,17.98
2022-10-02T21:42:43.296Z,13.43
2022-10-02T21:45:29.395Z,14.77
2022-10-02T21:48:33.812Z,20.60
2022-10-02T21:51:31.619Z,17.30
2022-10-02T21:54:01.773Z,13.77
2022-10-02T21:56:52.625Z,16.80
2022-10-02T21:59:40.953Z,13.10
2022-10-02T22:02:46.950Z,16.33
2022-10-02T22:05:17.336Z,19.67
2022-10-02T22:08:12.714Z,19.35
2022-10-02T22:13:39.222Z,19.60
2022-10-02T22:16:19.949Z,17.00
2022-10-02T22:19:10.766Z,14.45
2022-10-02T22:22:01.750Z,16.80
2022-10-02T22:24:58.124Z,16.10
2022-10-02T22:27:39.143Z,18.10
2022-10-02T22:30:09.296Z,16.35
2022-10-02T22:33:10.722Z,21.77
2022-10-02T22:35:53.603Z,19.83
2022-10-02T22:38:32.832Z,19.58
2022-10-02T22:41:28.781Z,20.10
2022-10-02T22:44:18.125Z,18.35
2022-10-02T22:47:16.712Z,23.05
2022-10-02T22:50:14.961Z,23.30
2022-10-02T22:53:00.713Z,23.08
2022-10-02T22:55:35.807Z,21.05
2022-10-02T22:58:14.672Z,18.40
2022-10-02T23:01:19.938Z,18.92
2022-10-02T23:03:51.597Z,23.35
2022-10-02T23:06:25.406Z,20.13
2022-10-02T23:09:12.438Z,15.63
2022-10-02T23:12:07.530Z,21.10
2022-10-02T23:14:49.896Z,24.33
2022-10-02T23:17:26.142Z,15.90
2022-10-02T23:20:20.201Z,24.25
2022-10-02T23:23:05.721Z,19.63
2022-10-02T23:26:13.168Z,21.15
2022-10-02T23:28:55.484Z,20.48
2022-10-02T23:31:49.060Z,26.05
2022-10-02T23:34:42.716Z,17.10
2022-10-02T23:37:26.907Z,22.95
2022-10-02T23:40:06.280Z,16.80
2022-10-02T23:42:41.651Z,19.65
2022-10-02T23:45:38.258Z,26.25
2022-10-02T23:48:08.098Z,27.30
2022-10-02T23:50:48.443Z,18.90
2022-10-02T23:53:35.322Z,17.55
2022-10-02T23:56:02.366Z,22.08
2022-10-02T23:58:43.323Z,32.40
